Time;durP1;ratioP1;P1;durP2;ratioP2;P2;SDS_P1;SDS_P2;PMS_P1;PMS_P2;Temp;Humidity;BMP_temperature;BMP_pressure;BME280_temperature;BME280_humidity;BME280_pressure;Samples;Min_cycle;Max_cycle;Signal;HPM_P1;HPM_P2
2021/09/20 00:01:01;;;;;;;6.07;2.33;;;16.10;86.00;;;;;;4964227;28;20055;-59
2021/09/20 00:03:28;;;;;;;5.57;2.30;;;16.10;85.80;;;;;;4949497;28;20051;-59
2021/09/20 00:05:55;;;;;;;5.72;2.47;;;16.10;85.70;;;;;;4965851;28;20046;-59
2021/09/20 00:08:22;;;;;;;5.80;2.83;;;16.00;85.70;;;;;;4967653;28;20106;-60
2021/09/20 00:10:50;;;;;;;4.55;2.65;;;16.00;86.10;;;;;;4967910;28;20051;-60
2021/09/20 00:13:17;;;;;;;4.60;2.13;;;16.00;85.90;;;;;;4960521;28;20051;-60
2021/09/20 00:15:44;;;;;;;7.05;2.70;;;16.00;85.90;;;;;;4967626;28;20058;-59
2021/09/20 00:18:11;;;;;;;10.80;3.15;;;16.00;85.90;;;;;;4965510;28;20371;-59
2021/09/20 00:20:38;;;;;;;6.72;3.22;;;16.00;85.40;;;;;;4968194;28;20506;-59
2021/09/20 00:23:05;;;;;;;6.13;3.13;;;16.00;85.60;;;;;;4934613;28;20510;-59
2021/09/20 00:25:34;;;;;;;5.45;2.97;;;16.00;85.40;;;;;;4950952;28;20050;-59
2021/09/20 00:28:01;;;;;;;6.22;3.28;;;16.00;85.00;;;;;;4962737;28;20121;-60
2021/09/20 00:30:28;;;;;;;7.70;3.00;;;16.00;84.90;;;;;;4956037;28;20857;-59
2021/09/20 00:32:54;;;;;;;7.25;2.85;;;15.90;85.00;;;;;;4965536;28;20055;-60
2021/09/20 00:35:21;;;;;;;5.57;2.97;;;15.90;85.20;;;;;;4970226;28;20494;-60
2021/09/20 00:37:48;;;;;;;9.63;3.47;;;15.90;85.00;;;;;;4965540;28;20086;-60
2021/09/20 00:40:15;;;;;;;4.80;3.03;;;15.90;85.00;;;;;;4936725;28;20070;-60
2021/09/20 00:42:42;;;;;;;4.05;3.10;;;15.90;84.80;;;;;;4963242;28;20086;-60
2021/09/20 00:45:09;;;;;;;4.57;2.85;;;15.80;84.80;;;;;;4967428;28;20080;-60
2021/09/20 00:47:35;;;;;;;4.10;2.83;;;15.80;84.90;;;;;;4964824;28;20482;-60
2021/09/20 00:50:03;;;;;;;6.38;3.22;;;15.80;84.80;;;;;;4929841;29;20065;-60
2021/09/20 00:52:30;;;;;;;5.68;3.35;;;15.70;84.60;;;;;;4965584;28;20082;-60
2021/09/20 00:54:57;;;;;;;5.13;3.22;;;15.70;84.80;;;;;;4964939;28;20042;-60
2021/09/20 00:57:25;;;;;;;9.48;3.40;;;15.70;84.90;;;;;;4966892;28;20046;-61
2021/09/20 00:59:51;;;;;;;5.22;2.75;;;15.70;84.70;;;;;;4952911;28;20070;-60
2021/09/20 01:02:18;;;;;;;4.20;2.97;;;15.60;85.00;;;;;;4951531;28;20050;-60
2021/09/20 01:04:45;;;;;;;4.40;2.92;;;15.60;84.80;;;;;;4965047;28;20078;-60
2021/09/20 01:07:12;;;;;;;5.18;3.20;;;15.60;85.10;;;;;;4978430;28;20046;-60
2021/09/20 01:09:41;;;;;;;6.68;3.00;;;15.60;85.50;;;;;;4962019;28;20506;-60
2021/09/20 01:12:11;;;;;;;4.88;2.63;;;15.60;84.80;;;;;;4964203;28;20056;-61
2021/09/20 01:14:38;;;;;;;3.53;2.08;;;15.60;84.60;;;;;;4960198;28;20502;-60
2021/09/20 01:17:05;;;;;;;4.18;2.38;;;15.60;84.60;;;;;;4945737;28;20356;-60
2021/09/20 01:19:32;;;;;;;5.85;2.63;;;15.60;84.70;;;;;;4968197;28;20403;-60
2021/09/20 01:22:01;;;;;;;6.35;2.33;;;15.60;84.70;;;;;;4968944;28;20085;-60
2021/09/20 01:24:28;;;;;;;3.70;1.73;;;15.60;84.60;;;;;;4965960;28;20061;-60
2021/09/20 01:26:59;;;;;;;4.28;2.00;;;15.50;84.30;;;;;;4961158;28;20118;-60
2021/09/20 01:29:26;;;;;;;5.43;2.33;;;15.40;84.60;;;;;;4964807;28;20050;-60
2021/09/20 01:31:53;;;;;;;5.15;2.17;;;15.40;84.80;;;;;;4970682;28;20125;-60
2021/09/20 01:34:20;;;;;;;5.45;3.17;;;15.40;84.60;;;;;;4974613;28;20106;-59
2021/09/20 01:36:47;;;;;;;4.70;1.92;;;15.50;84.60;;;;;;4951840;28;20047;-58
2021/09/20 01:39:18;;;;;;;9.07;1.90;;;15.50;84.20;;;;;;4966981;28;20047;-60
2021/09/20 01:41:45;;;;;;;5.63;1.80;;;15.50;84.20;;;;;;4969020;28;20085;-59
2021/09/20 01:44:13;;;;;;;6.07;3.13;;;15.50;84.30;;;;;;4965171;28;20047;-59
2021/09/20 01:46:43;;;;;;;3.90;2.35;;;15.50;83.80;;;;;;4963917;28;20047;-59
2021/09/20 01:49:10;;;;;;;4.63;2.03;;;15.50;84.00;;;;;;4965272;28;20043;-60
2021/09/20 01:51:37;;;;;;;7.00;2.60;;;15.50;83.60;;;;;;4956597;28;20058;-60
2021/09/20 01:54:04;;;;;;;4.32;1.80;;;15.50;83.90;;;;;;4967431;28;20134;-59
2021/09/20 01:56:31;;;;;;;4.60;1.83;;;15.50;83.90;;;;;;4951105;28;20055;-58
2021/09/20 01:58:59;;;;;;;4.22;1.92;;;15.50;83.80;;;;;;4951413;28;20054;-59
2021/09/20 02:01:26;;;;;;;7.00;1.95;;;15.50;83.10;;;;;;4960956;28;20117;-60
2021/09/20 02:03:53;;;;;;;3.92;1.45;;;15.40;83.30;;;;;;4966086;28;20143;-59
2021/09/20 02:06:21;;;;;;;6.18;1.75;;;15.30;83.30;;;;;;4957618;28;20099;-59
2021/09/20 02:08:48;;;;;;;2.45;1.52;;;15.40;83.60;;;;;;4979219;28;20092;-59
2021/09/20 02:11:16;;;;;;;5.13;1.63;;;15.30;83.10;;;;;;4945402;28;20134;-60
2021/09/20 02:13:42;;;;;;;4.88;2.33;;;15.30;83.00;;;;;;4962429;28;20050;-60
2021/09/20 02:16:09;;;;;;;4.18;1.42;;;15.30;82.80;;;;;;4944774;28;20498;-59
2021/09/20 02:18:38;;;;;;;4.35;1.92;;;15.30;82.90;;;;;;4967271;28;20054;-59
2021/09/20 02:21:06;;;;;;;5.43;1.52;;;15.30;83.00;;;;;;4963307;28;20590;-59
2021/09/20 02:23:33;;;;;;;8.20;1.73;;;15.30;82.80;;;;;;4967761;28;20078;-60
2021/09/20 02:26:00;;;;;;;5.53;1.58;;;15.30;82.90;;;;;;4967700;28;20085;-59
2021/09/20 02:28:27;;;;;;;8.40;1.67;;;15.30;82.90;;;;;;4967320;28;20074;-62
2021/09/20 02:30:54;;;;;;;4.32;2.30;;;15.30;83.00;;;;;;4963838;28;20075;-59
2021/09/20 02:33:21;;;;;;;6.18;3.42;;;15.30;82.80;;;;;;4968284;28;20047;-60
2021/09/20 02:35:48;;;;;;;6.85;1.38;;;15.30;82.70;;;;;;4967031;28;20371;-60
2021/09/20 02:38:15;;;;;;;5.03;2.50;;;15.30;82.70;;;;;;4963800;28;20121;-60
2021/09/20 02:40:42;;;;;;;3.08;1.75;;;15.30;82.70;;;;;;4966867;28;20051;-60
2021/09/20 02:43:08;;;;;;;3.53;1.63;;;15.30;83.20;;;;;;4964101;28;20138;-59
2021/09/20 02:45:35;;;;;;;2.95;1.58;;;15.30;82.80;;;;;;4967364;28;20082;-58
2021/09/20 02:48:02;;;;;;;5.82;1.75;;;15.40;82.80;;;;;;4966566;28;20074;-59
2021/09/20 02:50:29;;;;;;;2.05;1.25;;;15.30;82.50;;;;;;4967515;28;20581;-60
2021/09/20 02:52:55;;;;;;;3.53;2.28;;;15.30;82.40;;;;;;4962855;28;20110;-60
2021/09/20 02:55:22;;;;;;;2.95;1.17;;;15.30;82.10;;;;;;4967078;28;20047;-59
2021/09/20 02:57:49;;;;;;;5.90;1.88;;;15.30;82.10;;;;;;4963191;28;20134;-59
2021/09/20 03:00:16;;;;;;;11.82;1.90;;;15.20;82.10;;;;;;4967596;28;20521;-59
2021/09/20 03:02:42;;;;;;;2.50;1.02;;;15.20;82.20;;;;;;4965626;28;20134;-59
2021/09/20 03:05:10;;;;;;;3.55;1.23;;;15.20;81.90;;;;;;4961148;28;20043;-59
2021/09/20 03:07:36;;;;;;;3.33;1.45;;;15.20;81.90;;;;;;4965818;28;20086;-60
2021/09/20 03:10:04;;;;;;;4.50;1.30;;;15.30;82.10;;;;;;4967148;28;20061;-60
2021/09/20 03:12:31;;;;;;;5.82;2.17;;;15.30;82.00;;;;;;4962960;28;20054;-60
2021/09/20 03:14:58;;;;;;;7.38;1.70;;;15.30;81.60;;;;;;4967375;28;20038;-58
2021/09/20 03:17:25;;;;;;;5.65;1.25;;;15.30;81.70;;;;;;4947850;28;20506;-64
2021/09/20 03:19:51;;;;;;;6.18;1.67;;;15.30;81.80;;;;;;4966684;28;20070;-60
2021/09/20 03:22:18;;;;;;;3.22;1.33;;;15.40;81.50;;;;;;4964626;28;20130;-60
2021/09/20 03:24:45;;;;;;;2.80;2.20;;;15.30;81.20;;;;;;4958467;28;20089;-60
2021/09/20 03:27:12;;;;;;;4.68;1.20;;;15.30;81.50;;;;;;4965884;28;20051;-60
2021/09/20 03:29:39;;;;;;;2.83;1.33;;;15.30;81.50;;;;;;4939486;28;20047;-60
2021/09/20 03:32:06;;;;;;;2.45;0.90;;;15.30;81.40;;;;;;4974738;28;20339;-60
2021/09/20 03:34:33;;;;;;;3.28;1.42;;;15.30;81.50;;;;;;4965172;28;20130;-60
2021/09/20 03:37:00;;;;;;;3.40;1.52;;;15.30;81.40;;;;;;4976313;28;20535;-59
2021/09/20 03:39:27;;;;;;;4.18;1.10;;;15.30;81.00;;;;;;4961675;28;20082;-60
2021/09/20 03:41:54;;;;;;;8.30;1.45;;;15.30;81.10;;;;;;4977990;28;20054;-60
2021/09/20 03:44:21;;;;;;;7.57;1.63;;;15.30;81.20;;;;;;4977762;28;20101;-60
2021/09/20 03:46:47;;;;;;;3.15;1.33;;;15.20;81.00;;;;;;4981407;28;20403;-60
2021/09/20 03:49:14;;;;;;;2.55;1.10;;;15.20;80.80;;;;;;4982226;28;20046;-60
2021/09/20 03:51:41;;;;;;;3.60;1.70;;;15.10;80.70;;;;;;4955217;28;20050;-60
2021/09/20 03:54:08;;;;;;;5.07;1.63;;;15.10;80.90;;;;;;4968047;28;20074;-60
2021/09/20 03:56:34;;;;;;;3.25;1.10;;;15.10;80.50;;;;;;4971056;28;20100;-60
2021/09/20 03:59:01;;;;;;;4.10;1.30;;;15.00;80.80;;;;;;4949342;28;20046;-58
2021/09/20 04:01:28;;;;;;;5.63;1.30;;;14.90;80.80;;;;;;4951882;28;20754;-60
2021/09/20 04:03:55;;;;;;;4.10;1.48;;;14.80;81.00;;;;;;4966751;28;20071;-60
2021/09/20 04:06:22;;;;;;;4.97;1.50;;;14.80;81.10;;;;;;4962942;28;20090;-60
2021/09/20 04:08:48;;;;;;;6.13;2.85;;;14.70;81.00;;;;;;4967487;28;20164;-60
2021/09/20 04:11:15;;;;;;;4.25;1.00;;;14.70;81.20;;;;;;4952598;28;20047;-60
2021/09/20 04:13:42;;;;;;;9.32;3.55;;;14.70;81.20;;;;;;4961722;28;20082;-59
2021/09/20 04:16:09;;;;;;;13.75;1.45;;;14.70;81.30;;;;;;4948244;28;20087;-58
2021/09/20 04:18:36;;;;;;;7.65;1.60;;;14.60;81.40;;;;;;4952541;28;20051;-59
2021/09/20 04:21:02;;;;;;;3.20;1.20;;;14.60;81.40;;;;;;4957937;28;20047;-59
2021/09/20 04:23:29;;;;;;;12.18;2.47;;;14.60;81.40;;;;;;4967733;28;20055;-59
2021/09/20 04:25:56;;;;;;;3.88;1.38;;;14.60;81.70;;;;;;4965424;28;20084;-59
2021/09/20 04:28:23;;;;;;;7.45;1.88;;;14.50;81.60;;;;;;4966875;28;20074;-60
2021/09/20 04:30:50;;;;;;;8.07;1.52;;;14.50;81.80;;;;;;4966992;28;20102;-59
2021/09/20 04:33:17;;;;;;;6.50;1.23;;;14.40;81.60;;;;;;4965555;28;20133;-60
2021/09/20 04:35:45;;;;;;;6.05;1.58;;;14.40;82.10;;;;;;4952534;28;20078;-59
2021/09/20 04:38:11;;;;;;;5.72;1.45;;;14.30;82.00;;;;;;4966348;28;20070;-60
2021/09/20 04:40:38;;;;;;;6.60;1.52;;;14.30;82.10;;;;;;4951354;28;20502;-60
2021/09/20 04:43:07;;;;;;;9.95;2.03;;;14.40;82.80;;;;;;4966962;28;20078;-60
2021/09/20 04:45:37;;;;;;;4.38;1.90;;;14.40;82.10;;;;;;4965283;28;20091;-60
2021/09/20 04:48:07;;;;;;;2.72;1.00;;;14.30;82.00;;;;;;4966384;28;20051;-60
2021/09/20 04:50:33;;;;;;;6.93;1.42;;;14.30;82.00;;;;;;4968966;28;20478;-61
2021/09/20 04:53:00;;;;;;;7.97;1.38;;;14.30;82.20;;;;;;4969665;28;20554;-60
2021/09/20 04:55:27;;;;;;;4.93;1.58;;;14.30;82.20;;;;;;4968754;28;20074;-60
2021/09/20 04:57:55;;;;;;;8.90;2.97;;;14.30;82.50;;;;;;4948984;28;20085;-59
2021/09/20 05:00:22;;;;;;;18.40;3.42;;;14.20;82.30;;;;;;4950522;28;20107;-60
2021/09/20 05:02:49;;;;;;;11.63;2.40;;;14.20;82.60;;;;;;4967189;28;20070;-60
2021/09/20 05:05:16;;;;;;;8.18;2.03;;;14.20;82.60;;;;;;4969246;28;20074;-59
2021/09/20 05:07:43;;;;;;;8.25;2.03;;;14.20;82.60;;;;;;4966021;28;20062;-59
2021/09/20 05:10:09;;;;;;;6.57;2.03;;;14.20;82.50;;;;;;4969556;28;20355;-60
2021/09/20 05:12:36;;;;;;;8.63;3.80;;;14.20;82.80;;;;;;4963974;28;20047;-60
2021/09/20 05:15:03;;;;;;;2.53;1.15;;;14.20;82.70;;;;;;4964920;28;20043;-60
2021/09/20 05:17:30;;;;;;;3.33;1.67;;;14.10;83.40;;;;;;4966529;28;20142;-60
2021/09/20 05:19:57;;;;;;;5.50;1.98;;;14.10;82.90;;;;;;4970103;28;20043;-59
2021/09/20 05:22:24;;;;;;;5.53;1.98;;;14.10;82.80;;;;;;4967405;28;20117;-60
2021/09/20 05:24:50;;;;;;;2.78;1.27;;;14.20;83.00;;;;;;4969244;28;20062;-59
2021/09/20 05:27:17;;;;;;;9.43;2.10;;;14.10;82.90;;;;;;4965397;28;20572;-59
2021/09/20 05:29:45;;;;;;;7.88;2.22;;;14.10;83.00;;;;;;4963259;28;20554;-59
2021/09/20 05:32:11;;;;;;;7.30;1.77;;;14.00;83.10;;;;;;4964039;28;20078;-59
2021/09/20 05:34:38;;;;;;;6.63;1.73;;;14.00;83.30;;;;;;4961908;28;20051;-59
2021/09/20 05:37:05;;;;;;;6.38;2.33;;;14.10;83.30;;;;;;4970404;28;20055;-59
2021/09/20 05:39:33;;;;;;;7.63;2.05;;;14.00;83.40;;;;;;4965568;28;20058;-60
2021/09/20 05:42:00;;;;;;;7.80;2.00;;;14.00;83.40;;;;;;4967846;28;20046;-59
2021/09/20 05:44:27;;;;;;;9.75;2.33;;;14.00;83.60;;;;;;4942992;28;20059;-59
2021/09/20 05:46:54;;;;;;;11.80;1.73;;;14.00;83.60;;;;;;4950537;28;20521;-60
2021/09/20 05:49:20;;;;;;;5.88;2.00;;;14.00;83.50;;;;;;4961720;28;20039;-59
2021/09/20 05:51:47;;;;;;;7.43;2.30;;;13.90;83.70;;;;;;4973809;28;20059;-58
2021/09/20 05:54:14;;;;;;;6.35;1.85;;;14.00;83.90;;;;;;4966578;28;20085;-58
2021/09/20 05:56:41;;;;;;;10.10;2.88;;;14.00;84.00;;;;;;4969005;28;20100;-59
2021/09/20 05:59:08;;;;;;;6.22;2.50;;;14.00;84.10;;;;;;4963812;28;20050;-59
2021/09/20 06:01:34;;;;;;;6.47;2.40;;;14.00;84.10;;;;;;4968877;28;20138;-59
2021/09/20 06:04:02;;;;;;;4.07;2.85;;;14.10;84.20;;;;;;4948116;28;20054;-60
2021/09/20 06:06:28;;;;;;;11.98;3.45;;;14.20;84.20;;;;;;4951280;28;20057;-60
2021/09/20 06:08:55;;;;;;;11.68;3.28;;;14.20;84.10;;;;;;4946489;28;20074;-59
2021/09/20 06:11:22;;;;;;;6.70;4.43;;;14.20;84.10;;;;;;4960545;28;20078;-59
2021/09/20 06:13:49;;;;;;;8.27;4.03;;;14.30;84.20;;;;;;4965703;28;20050;-60
2021/09/20 06:16:16;;;;;;;14.23;4.65;;;14.30;84.30;;;;;;4961638;28;20110;-59
2021/09/20 06:18:43;;;;;;;12.52;4.10;;;14.30;84.30;;;;;;4966441;28;20209;-60
2021/09/20 06:21:09;;;;;;;12.80;4.25;;;14.40;84.30;;;;;;4967272;28;20669;-59
2021/09/20 06:23:36;;;;;;;14.18;5.47;;;14.30;84.00;;;;;;4964170;28;20090;-60
2021/09/20 06:26:03;;;;;;;11.18;5.32;;;14.30;84.30;;;;;;4963088;28;20101;-60
2021/09/20 06:28:30;;;;;;;13.00;5.15;;;14.40;84.40;;;;;;4958098;28;20089;-55
2021/09/20 06:31:01;;;;;;;12.30;4.40;;;14.40;84.30;;;;;;4950795;28;20054;-59
2021/09/20 06:33:32;;;;;;;10.98;4.72;;;14.30;84.40;;;;;;4964366;28;20043;-59
2021/09/20 06:35:59;;;;;;;14.75;4.65;;;14.40;84.40;;;;;;4966747;28;20596;-59
2021/09/20 06:38:26;;;;;;;10.35;5.07;;;14.40;84.30;;;;;;4967196;28;20047;-57
2021/09/20 06:40:52;;;;;;;13.80;7.05;;;14.50;84.70;;;;;;4966279;28;20118;-58
2021/09/20 06:43:19;;;;;;;11.95;4.38;;;14.40;84.30;;;;;;4965441;28;20443;-59
2021/09/20 06:45:46;;;;;;;14.93;5.53;;;14.40;84.60;;;;;;4960550;28;20102;-58
2021/09/20 06:48:13;;;;;;;10.20;4.97;;;14.50;84.80;;;;;;4963249;28;20047;-58
2021/09/20 06:50:40;;;;;;;11.32;4.97;;;14.60;84.70;;;;;;4961879;28;20521;-57
2021/09/20 06:53:07;;;;;;;9.52;5.45;;;14.60;84.50;;;;;;4959692;28;20059;-58
2021/09/20 06:55:33;;;;;;;10.30;5.22;;;14.60;84.40;;;;;;4963011;28;20082;-57
2021/09/20 06:58:00;;;;;;;9.87;5.10;;;14.70;84.40;;;;;;4623850;28;10000800;-58
2021/09/20 07:00:28;;;;;;;19.15;5.63;;;14.80;84.50;;;;;;4960447;28;20125;-58
2021/09/20 07:02:55;;;;;;;14.57;6.53;;;14.70;84.10;;;;;;4963971;28;20525;-59
2021/09/20 07:05:22;;;;;;;12.07;4.88;;;14.70;84.30;;;;;;4959159;28;20142;-59
2021/09/20 07:07:49;;;;;;;10.38;5.22;;;14.70;84.30;;;;;;4959760;28;20109;-59
2021/09/20 07:10:16;;;;;;;11.82;5.75;;;14.70;84.20;;;;;;4961113;28;20054;-59
2021/09/20 07:12:44;;;;;;;8.57;5.28;;;14.70;84.50;;;;;;4960187;28;20145;-56
2021/09/20 07:15:11;;;;;;;8.73;4.38;;;14.80;84.30;;;;;;4964936;28;20059;-58
2021/09/20 07:17:38;;;;;;;10.70;4.55;;;14.80;84.10;;;;;;4959929;28;20098;-56
2021/09/20 07:20:06;;;;;;;10.93;4.72;;;14.80;84.20;;;;;;4968318;28;20058;-58
2021/09/20 07:22:32;;;;;;;21.55;5.90;;;14.70;84.20;;;;;;4964265;28;20074;-57
2021/09/20 07:25:00;;;;;;;19.73;5.38;;;14.70;84.40;;;;;;4952448;28;20054;-57
2021/09/20 07:27:26;;;;;;;14.48;5.22;;;14.70;84.30;;;;;;4967946;28;20573;-56
2021/09/20 07:29:53;;;;;;;13.25;6.05;;;14.70;85.00;;;;;;4959930;28;20050;-57
2021/09/20 07:32:20;;;;;;;9.80;4.32;;;14.80;84.50;;;;;;4972244;28;20058;-57
2021/09/20 07:34:47;;;;;;;11.77;5.03;;;14.90;84.30;;;;;;4973243;28;20046;-58
2021/09/20 07:37:15;;;;;;;14.40;5.00;;;15.00;84.30;;;;;;4951350;28;20047;-58
2021/09/20 07:39:41;;;;;;;12.35;5.38;;;15.00;83.70;;;;;;4973294;28;20486;-58
2021/09/20 07:42:09;;;;;;;12.25;5.18;;;15.00;83.70;;;;;;4963533;28;20082;-57
2021/09/20 07:44:36;;;;;;;12.02;5.13;;;15.00;83.80;;;;;;4970174;28;20055;-57
2021/09/20 07:47:03;;;;;;;9.45;4.90;;;15.10;83.80;;;;;;4951099;28;20067;-57
2021/09/20 07:49:29;;;;;;;10.50;5.07;;;15.00;83.60;;;;;;4969891;28;20094;-56
2021/09/20 07:51:56;;;;;;;10.32;5.32;;;15.10;83.50;;;;;;4947989;28;20082;-58
2021/09/20 07:54:23;;;;;;;11.35;5.53;;;15.00;83.30;;;;;;4964674;28;20543;-57
2021/09/20 07:56:50;;;;;;;9.60;5.13;;;15.00;83.70;;;;;;4954285;28;20118;-58
2021/09/20 07:59:17;;;;;;;13.55;6.50;;;15.00;83.60;;;;;;4948154;28;20137;-57
2021/09/20 08:01:45;;;;;;;9.35;5.45;;;15.00;83.50;;;;;;4967933;28;20062;-57
2021/09/20 08:04:12;;;;;;;14.57;5.55;;;15.00;83.50;;;;;;4966379;28;20130;-57
2021/09/20 08:06:39;;;;;;;13.80;5.85;;;15.00;83.30;;;;;;4977172;28;20479;-56
2021/09/20 08:09:06;;;;;;;10.05;5.68;;;15.00;83.60;;;;;;4967647;28;20074;-57
2021/09/20 08:11:33;;;;;;;10.05;5.47;;;15.00;83.70;;;;;;4968949;28;20189;-58
2021/09/20 08:13:59;;;;;;;16.30;6.15;;;15.10;83.70;;;;;;4961497;28;20047;-59
2021/09/20 08:16:26;;;;;;;17.33;6.55;;;15.20;83.60;;;;;;4966041;28;20050;-59
2021/09/20 08:18:53;;;;;;;15.27;5.93;;;15.20;83.30;;;;;;4963351;28;20527;-58
2021/09/20 08:21:20;;;;;;;12.55;5.53;;;15.10;83.20;;;;;;4965673;28;20265;-58
2021/09/20 08:23:47;;;;;;;7.03;4.13;;;15.10;83.60;;;;;;4962730;28;20158;-57
2021/09/20 08:26:13;;;;;;;11.20;4.88;;;15.20;83.50;;;;;;4962425;28;20039;-58
2021/09/20 08:28:40;;;;;;;15.02;5.75;;;15.20;83.40;;;;;;4960771;28;20085;-57
2021/09/20 08:31:07;;;;;;;17.55;4.50;;;15.20;83.30;;;;;;4945925;28;20046;-58
2021/09/20 08:33:34;;;;;;;11.98;5.18;;;15.10;83.20;;;;;;4963087;28;20058;-58
2021/09/20 08:36:01;;;;;;;14.55;5.35;;;15.10;83.40;;;;;;4963125;28;20149;-57
2021/09/20 08:38:27;;;;;;;15.93;4.88;;;15.20;83.40;;;;;;4964833;28;20142;-56
2021/09/20 08:40:54;;;;;;;27.05;5.88;;;15.10;83.70;;;;;;4965409;28;20051;-57
2021/09/20 08:43:21;;;;;;;11.35;5.60;;;15.10;83.50;;;;;;4950723;28;20074;-58
2021/09/20 08:45:48;;;;;;;16.05;5.25;;;15.20;83.50;;;;;;4969311;28;20501;-58
2021/09/20 08:48:15;;;;;;;12.57;4.78;;;15.20;83.40;;;;;;4967431;28;20083;-57
2021/09/20 08:50:42;;;;;;;13.38;5.38;;;15.20;83.50;;;;;;4962877;28;20090;-57
2021/09/20 08:53:09;;;;;;;10.70;5.30;;;15.20;83.50;;;;;;4967536;28;20123;-58
2021/09/20 08:55:36;;;;;;;11.38;5.15;;;15.20;83.60;;;;;;4979494;28;20074;-58
2021/09/20 08:58:03;;;;;;;17.70;5.95;;;15.20;83.60;;;;;;4979250;28;20125;-57
2021/09/20 09:00:30;;;;;;;11.88;5.55;;;15.20;83.60;;;;;;4966484;28;20054;-56
2021/09/20 09:02:59;;;;;;;12.60;4.95;;;15.30;83.60;;;;;;4969694;28;20046;-56
2021/09/20 09:05:28;;;;;;;13.40;5.03;;;15.30;83.60;;;;;;4963274;28;20062;-57
2021/09/20 09:07:56;;;;;;;14.50;5.60;;;15.20;83.40;;;;;;4969117;28;20125;-57
2021/09/20 09:10:24;;;;;;;12.23;5.03;;;15.20;83.60;;;;;;4964279;28;20106;-57
2021/09/20 09:12:51;;;;;;;9.43;5.88;;;15.20;83.70;;;;;;4625222;28;9999891;-57
2021/09/20 09:15:19;;;;;;;16.25;6.85;;;15.20;83.60;;;;;;4962897;28;20171;-57
2021/09/20 09:17:47;;;;;;;11.20;5.72;;;15.30;83.50;;;;;;4967552;28;20758;-57
2021/09/20 09:20:23;;;;;;;13.50;6.85;;;15.30;83.60;;;;;;4963876;28;20106;-57
2021/09/20 09:22:58;;;;;;;16.23;7.45;;;15.30;83.80;;;;;;4961935;28;20092;-57
2021/09/20 09:25:26;;;;;;;11.00;7.20;;;15.40;83.70;;;;;;4954928;28;20101;-57
2021/09/20 09:28:02;;;;;;;16.83;7.78;;;15.40;83.40;;;;;;4963905;28;20074;-58
2021/09/20 09:30:31;;;;;;;12.27;7.13;;;15.40;83.40;;;;;;4963155;28;20050;-57
2021/09/20 09:33:07;;;;;;;14.40;7.55;;;15.50;83.70;;;;;;4949761;28;20074;-57
2021/09/20 09:35:35;;;;;;;20.00;8.80;;;15.50;83.40;;;;;;4957533;28;20082;-58
2021/09/20 09:38:04;;;;;;;15.93;8.38;;;15.40;83.40;;;;;;4945734;28;20111;-57
2021/09/20 09:40:52;;;;;;;13.75;7.80;;;15.50;83.50;;;;;;4942621;28;20082;-57
2021/09/20 09:43:24;;;;;;;17.92;8.90;;;15.50;83.40;;;;;;4962490;28;20077;-57
2021/09/20 09:45:51;;;;;;;20.05;8.77;;;15.50;83.60;;;;;;4965693;28;20078;-57
2021/09/20 09:48:20;;;;;;;13.80;7.72;;;15.40;83.60;;;;;;4961401;28;20423;-57
2021/09/20 09:50:53;;;;;;;20.15;9.77;;;15.50;83.90;;;;;;4960816;28;20130;-57
2021/09/20 09:53:29;;;;;;;15.85;8.30;;;15.60;83.70;;;;;;4962085;28;20078;-58
2021/09/20 09:55:58;;;;;;;20.25;8.73;;;15.60;83.30;;;;;;4964393;28;20166;-57
2021/09/20 09:58:25;;;;;;;16.08;8.27;;;15.60;83.60;;;;;;4961487;28;20054;-57
2021/09/20 10:01:11;;;;;;;20.80;9.55;;;15.60;83.60;;;;;;4965278;28;20074;-54
2021/09/20 10:04:01;;;;;;;15.65;8.13;;;15.70;83.80;;;;;;4964136;28;20142;-57
2021/09/20 10:06:28;;;;;;;16.02;8.20;;;15.80;83.60;;;;;;4962606;28;20155;-57
2021/09/20 10:08:55;;;;;;;15.63;8.45;;;15.80;83.50;;;;;;4967406;28;20601;-56
2021/09/20 10:11:22;;;;;;;19.33;9.10;;;15.90;83.50;;;;;;4963346;28;20225;-57
2021/09/20 10:13:48;;;;;;;15.48;8.75;;;15.90;83.40;;;;;;4966525;28;20137;-57
2021/09/20 10:16:15;;;;;;;18.35;9.77;;;16.00;83.50;;;;;;4934252;28;20074;-58
2021/09/20 10:18:42;;;;;;;16.88;9.15;;;15.90;83.10;;;;;;4930925;28;20097;-56
2021/09/20 10:21:09;;;;;;;16.50;8.18;;;15.90;83.10;;;;;;4949192;28;20066;-56
2021/09/20 10:23:35;;;;;;;19.02;9.05;;;16.00;83.20;;;;;;4943179;29;20055;-57
2021/09/20 10:26:03;;;;;;;17.40;9.35;;;16.00;83.10;;;;;;4930393;29;20126;-57
2021/09/20 10:28:31;;;;;;;15.57;8.50;;;16.10;83.20;;;;;;4915967;29;20139;-57
2021/09/20 10:30:57;;;;;;;17.23;9.70;;;16.10;83.00;;;;;;4922974;29;20043;-57
2021/09/20 10:33:27;;;;;;;17.20;9.30;;;16.10;82.90;;;;;;4945815;29;20090;-57
2021/09/20 10:35:55;;;;;;;15.25;8.70;;;16.10;82.90;;;;;;4947953;29;20047;-57
2021/09/20 10:38:21;;;;;;;16.90;8.90;;;16.10;83.00;;;;;;4943785;28;20109;-58
2021/09/20 10:41:08;;;;;;;13.90;8.10;;;16.20;83.10;;;;;;4949954;28;20043;-58
2021/09/20 10:43:39;;;;;;;20.58;9.50;;;16.20;83.10;;;;;;4953296;28;20364;-57
2021/09/20 10:46:18;;;;;;;14.55;8.68;;;16.30;83.10;;;;;;4955860;28;20051;-57
2021/09/20 10:49:07;;;;;;;13.73;8.75;;;16.40;82.50;;;;;;4949154;28;20055;-57
2021/09/20 10:51:39;;;;;;;15.57;8.82;;;16.50;82.90;;;;;;4939928;28;20051;-57
2021/09/20 10:54:13;;;;;;;14.25;8.75;;;16.60;82.70;;;;;;4950209;28;20340;-57
2021/09/20 10:56:40;;;;;;;15.02;8.38;;;16.60;82.30;;;;;;4955432;28;21172;-58
2021/09/20 10:59:10;;;;;;;14.80;8.35;;;16.70;82.50;;;;;;4947430;28;20055;-58
2021/09/20 11:01:39;;;;;;;16.58;9.65;;;16.80;82.10;;;;;;4946792;29;20162;-57
2021/09/20 11:04:14;;;;;;;12.63;8.35;;;16.90;81.90;;;;;;4951750;28;20098;-57
2021/09/20 11:06:43;;;;;;;16.70;9.15;;;17.10;81.90;;;;;;4938591;29;20051;-58
2021/09/20 11:09:09;;;;;;;11.50;7.80;;;17.30;81.50;;;;;;4946523;29;20221;-58
2021/09/20 11:11:41;;;;;;;15.90;10.07;;;17.30;81.70;;;;;;4957641;28;20137;-57
2021/09/20 11:14:11;;;;;;;12.32;8.32;;;17.40;80.90;;;;;;4947953;28;20054;-58
2021/09/20 11:16:55;;;;;;;17.55;8.73;;;17.40;80.90;;;;;;4947301;29;20122;-58
2021/09/20 11:19:31;;;;;;;15.68;8.40;;;17.40;78.40;;;;;;4942995;28;20054;-58
2021/09/20 11:22:11;;;;;;;11.57;8.18;;;17.60;80.30;;;;;;4954782;28;20087;-57
2021/09/20 11:24:39;;;;;;;13.95;8.77;;;17.60;79.70;;;;;;4957463;28;20054;-57
2021/09/20 11:27:12;;;;;;;13.98;8.85;;;17.80;80.50;;;;;;4947834;28;20133;-57
2021/09/20 11:29:38;;;;;;;16.30;9.35;;;17.80;79.90;;;;;;4957105;28;20134;-58
2021/09/20 11:32:06;;;;;;;13.32;8.52;;;17.90;80.20;;;;;;4966193;28;20046;-58
2021/09/20 11:34:35;;;;;;;10.10;8.15;;;18.10;80.00;;;;;;4948678;28;20074;-58
2021/09/20 11:37:28;;;;;;;11.80;7.38;;;18.20;79.30;;;;;;4948657;28;20490;-58
2021/09/20 11:40:00;;;;;;;14.68;8.25;;;18.30;78.00;;;;;;4958474;28;20085;-58
2021/09/20 11:42:37;;;;;;;12.27;8.18;;;18.40;78.70;;;;;;4965667;28;20738;-57
2021/09/20 11:45:26;;;;;;;12.80;8.07;;;18.40;79.00;;;;;;4950413;28;20642;-58
2021/09/20 11:47:57;;;;;;;17.08;8.10;;;18.40;77.70;;;;;;4960087;28;20046;-58
2021/09/20 11:50:31;;;;;;;13.55;7.25;;;18.40;77.50;;;;;;4964833;28;20050;-57
2021/09/20 11:53:03;;;;;;;11.85;8.27;;;18.40;78.30;;;;;;4966328;28;20046;-58
2021/09/20 11:55:35;;;;;;;11.85;8.35;;;18.40;78.80;;;;;;4947947;28;20051;-59
2021/09/20 11:58:08;;;;;;;10.65;7.18;;;18.40;78.30;;;;;;4959461;28;20039;-58
2021/09/20 12:00:36;;;;;;;9.98;7.93;;;18.40;78.30;;;;;;4962402;28;20185;-59
2021/09/20 12:03:04;;;;;;;12.10;8.25;;;18.40;78.60;;;;;;4958795;28;20130;-59
2021/09/20 12:05:36;;;;;;;9.15;7.35;;;18.40;78.20;;;;;;4966108;28;20102;-59
2021/09/20 12:08:05;;;;;;;11.27;7.72;;;18.50;78.10;;;;;;4964848;28;20089;-58
2021/09/20 12:10:41;;;;;;;17.13;8.27;;;18.50;78.40;;;;;;4962120;28;20463;-58
2021/09/20 12:13:11;;;;;;;10.90;9.23;;;18.50;78.10;;;;;;4965424;28;20735;-58
2021/09/20 12:15:39;;;;;;;12.00;9.68;;;18.50;77.80;;;;;;4963713;28;20099;-57
2021/09/20 12:18:10;;;;;;;10.32;8.45;;;18.40;78.00;;;;;;4967894;28;20047;-58
2021/09/20 12:21:00;;;;;;;9.95;7.80;;;18.40;77.90;;;;;;4949803;28;20094;-58
2021/09/20 12:23:28;;;;;;;10.40;9.25;;;18.40;76.70;;;;;;4947661;28;20062;-58
2021/09/20 12:25:59;;;;;;;12.40;7.78;;;18.30;78.20;;;;;;4965280;28;20134;-57
2021/09/20 12:28:30;;;;;;;13.75;8.25;;;18.40;77.70;;;;;;4969163;28;20180;-57
2021/09/20 12:31:05;;;;;;;10.60;7.82;;;18.40;77.90;;;;;;4965207;28;20499;-58
2021/09/20 12:33:51;;;;;;;13.43;8.43;;;18.50;77.60;;;;;;4962506;28;20082;-58
2021/09/20 12:36:28;;;;;;;10.85;8.15;;;18.60;77.40;;;;;;4965414;28;20078;-58
2021/09/20 12:39:04;;;;;;;12.85;8.90;;;18.70;77.30;;;;;;4969256;28;20455;-57
2021/09/20 12:41:43;;;;;;;8.60;6.93;;;18.80;77.10;;;;;;4965677;28;20086;-57
2021/09/20 12:44:12;;;;;;;12.73;7.68;;;18.90;76.10;;;;;;4969845;28;20093;-56
2021/09/20 12:46:39;;;;;;;10.48;7.85;;;18.90;76.40;;;;;;4965554;28;20083;-56